sensor_id;sensor_type;location;lat;lon;timestamp;temperature;humidity
22522;DHT22;11427;51.062;17.044;2022-10-31T00:01:51;13.20;99.90
22522;DHT22;11427;51.062;17.044;2022-10-31T00:16:53;13.30;99.90
22522;DHT22;11427;51.062;17.044;2022-10-31T00:31:55;12.80;99.90
22522;DHT22;11427;51.062;17.044;2022-10-31T00:46:57;12.70;99.90
22522;DHT22;11427;51.062;17.044;2022-10-31T01:01:59;12.60;99.90
22522;DHT22;11427;51.062;17.044;2022-10-31T01:17:01;12.60;99.90
22522;DHT22;11427;51.062;17.044;2022-10-31T01:32:03;12.50;99.90
22522;DHT22;11427;51.062;17.044;2022-10-31T01:47:11;12.30;99.90
22522;DHT22;11427;51.062;17.044;2022-10-31T02:02:16;12.40;99.90
22522;DHT22;11427;51.062;17.044;2022-10-31T02:17:19;12.50;99.90
22522;DHT22;11427;51.062;17.044;2022-10-31T02:32:28;12.00;99.90
22522;DHT22;11427;51.062;17.044;2022-10-31T02:47:36;11.90;99.90
22522;DHT22;11427;51.062;17.044;2022-10-31T03:18:24;11.90;99.90
22522;DHT22;11427;51.062;17.044;2022-10-31T03:33:31;11.60;99.90
22522;DHT22;11427;51.062;17.044;2022-10-31T03:48:34;11.20;99.90
22522;DHT22;11427;51.062;17.044;2022-10-31T04:03:38;11.10;99.90
22522;DHT22;11427;51.062;17.044;2022-10-31T04:18:40;11.20;99.90
22522;DHT22;11427;51.062;17.044;2022-10-31T04:33:42;11.20;99.90
22522;DHT22;11427;51.062;17.044;2022-10-31T04:48:44;11.10;99.90
22522;DHT22;11427;51.062;17.044;2022-10-31T05:03:46;11.00;99.90
22522;DHT22;11427;51.062;17.044;2022-10-31T05:18:48;11.10;99.90
22522;DHT22;11427;51.062;17.044;2022-10-31T05:33:50;11.10;99.90
22522;DHT22;11427;51.062;17.044;2022-10-31T05:48:52;11.00;99.90
22522;DHT22;11427;51.062;17.044;2022-10-31T06:03:56;10.90;99.90
22522;DHT22;11427;51.062;17.044;2022-10-31T06:18:58;10.90;99.90
22522;DHT22;11427;51.062;17.044;2022-10-31T06:34:00;10.70;99.90
22522;DHT22;11427;51.062;17.044;2022-10-31T06:49:02;11.00;99.90
22522;DHT22;11427;51.062;17.044;2022-10-31T07:04:04;11.30;99.90
22522;DHT22;11427;51.062;17.044;2022-10-31T07:19:06;11.80;99.90
22522;DHT22;11427;51.062;17.044;2022-10-31T07:34:08;12.00;99.90
22522;DHT22;11427;51.062;17.044;2022-10-31T07:49:10;13.20;99.90
22522;DHT22;11427;51.062;17.044;2022-10-31T08:18:44;15.00;99.90
22522;DHT22;11427;51.062;17.044;2022-10-31T08:33:46;17.80;99.90
22522;DHT22;11427;51.062;17.044;2022-10-31T08:48:48;19.50;99.90
22522;DHT22;11427;51.062;17.044;2022-10-31T09:03:50;19.60;99.90
22522;DHT22;11427;51.062;17.044;2022-10-31T09:18:52;20.00;99.90
22522;DHT22;11427;51.062;17.044;2022-10-31T09:33:54;20.30;99.90
22522;DHT22;11427;51.062;17.044;2022-10-31T10:04:34;20.70;99.90
22522;DHT22;11427;51.062;17.044;2022-10-31T10:20:34;21.00;99.90
22522;DHT22;11427;51.062;17.044;2022-10-31T10:36:04;21.20;99.90
22522;DHT22;11427;51.062;17.044;2022-10-31T10:51:06;21.40;99.90
22522;DHT22;11427;51.062;17.044;2022-10-31T11:06:31;21.60;99.90
22522;DHT22;11427;51.062;17.044;2022-10-31T11:21:34;21.40;99.90
22522;DHT22;11427;51.062;17.044;2022-10-31T11:36:38;21.60;99.90
22522;DHT22;11427;51.062;17.044;2022-10-31T11:51:40;21.70;99.90
22522;DHT22;11427;51.062;17.044;2022-10-31T12:06:44;21.70;99.90
22522;DHT22;11427;51.062;17.044;2022-10-31T13:08:35;21.40;99.90
22522;DHT22;11427;51.062;17.044;2022-10-31T13:23:39;21.10;99.90
22522;DHT22;11427;51.062;17.044;2022-10-31T13:54:23;21.00;99.90
22522;DHT22;11427;51.062;17.044;2022-10-31T14:09:37;20.80;99.90
22522;DHT22;11427;51.062;17.044;2022-10-31T14:24:40;20.70;99.90
22522;DHT22;11427;51.062;17.044;2022-10-31T14:55:24;20.50;99.90
22522;DHT22;11427;51.062;17.044;2022-10-31T15:10:30;20.10;99.90
22522;DHT22;11427;51.062;17.044;2022-10-31T15:25:34;19.70;99.90
22522;DHT22;11427;51.062;17.044;2022-10-31T15:40:36;19.30;99.90
22522;DHT22;11427;51.062;17.044;2022-10-31T15:55:55;18.70;99.90
22522;DHT22;11427;51.062;17.044;2022-10-31T16:26:06;18.00;99.90
22522;DHT22;11427;51.062;17.044;2022-10-31T16:41:08;17.60;99.90
22522;DHT22;11427;51.062;17.044;2022-10-31T16:56:31;17.30;99.90
22522;DHT22;11427;51.062;17.044;2022-10-31T17:11:34;17.00;99.90
22522;DHT22;11427;51.062;17.044;2022-10-31T17:26:36;16.50;99.90
22522;DHT22;11427;51.062;17.044;2022-10-31T17:41:39;15.70;99.90
22522;DHT22;11427;51.062;17.044;2022-10-31T17:56:41;16.00;99.90
22522;DHT22;11427;51.062;17.044;2022-10-31T18:11:42;15.50;99.90
22522;DHT22;11427;51.062;17.044;2022-10-31T18:26:45;15.40;99.90
22522;DHT22;11427;51.062;17.044;2022-10-31T18:41:47;15.20;99.90
22522;DHT22;11427;51.062;17.044;2022-10-31T18:56:49;15.00;99.90
22522;DHT22;11427;51.062;17.044;2022-10-31T19:11:51;14.80;99.90
22522;DHT22;11427;51.062;17.044;2022-10-31T19:26:53;14.60;99.90
22522;DHT22;11427;51.062;17.044;2022-10-31T19:41:55;14.30;99.90
22522;DHT22;11427;51.062;17.044;2022-10-31T19:56:57;14.20;99.90
22522;DHT22;11427;51.062;17.044;2022-10-31T20:11:59;14.20;99.90
22522;DHT22;11427;51.062;17.044;2022-10-31T20:27:01;14.20;99.90
22522;DHT22;11427;51.062;17.044;2022-10-31T20:42:05;14.00;99.90
22522;DHT22;11427;51.062;17.044;2022-10-31T20:57:07;13.70;99.90
22522;DHT22;11427;51.062;17.044;2022-10-31T21:12:09;13.00;99.90
22522;DHT22;11427;51.062;17.044;2022-10-31T21:27:11;12.60;99.90
22522;DHT22;11427;51.062;17.044;2022-10-31T21:42:13;12.40;99.90
22522;DHT22;11427;51.062;17.044;2022-10-31T21:57:21;12.20;99.90
22522;DHT22;11427;51.062;17.044;2022-10-31T22:12:27;12.20;99.90
22522;DHT22;11427;51.062;17.044;2022-10-31T22:27:30;12.20;99.90
22522;DHT22;11427;51.062;17.044;2022-10-31T22:42:32;12.40;99.90
22522;DHT22;11427;51.062;17.044;2022-10-31T22:57:37;12.10;99.90
22522;DHT22;11427;51.062;17.044;2022-10-31T23:12:42;12.10;99.90
22522;DHT22;11427;51.062;17.044;2022-10-31T23:28:05;12.10;99.90
22522;DHT22;11427;51.062;17.044;2022-10-31T23:43:08;11.90;99.90
22522;DHT22;11427;51.062;17.044;2022-10-31T23:58:13;11.80;99.90
